createdAt,value
2019-02-08T00:02:10.134Z,4.17
2019-02-08T00:04:40.396Z,3.87
2019-02-08T00:07:11.255Z,4.03
2019-02-08T00:09:41.655Z,3.80
2019-02-08T00:12:11.991Z,3.22
2019-02-08T00:14:42.311Z,3.73
2019-02-08T00:17:12.743Z,3.60
2019-02-08T00:19:43.370Z,3.60
2019-02-08T00:22:13.981Z,3.77
2019-02-08T00:24:44.083Z,2.63
2019-02-08T00:27:14.415Z,3.33
2019-02-08T00:29:44.754Z,3.83
2019-02-08T00:32:15.158Z,4.40
2019-02-08T00:34:45.594Z,3.43
2019-02-08T00:37:16.110Z,3.50
2019-02-08T00:39:46.383Z,3.87
2019-02-08T00:42:16.668Z,3.77
2019-02-08T00:44:47.004Z,4.00
2019-02-08T00:47:17.278Z,4.35
2019-02-08T00:49:47.605Z,3.27
2019-02-08T00:52:17.874Z,4.40
2019-02-08T00:54:50.270Z,3.67
2019-02-08T00:57:20.574Z,4.53
2019-02-08T00:59:50.992Z,4.60
2019-02-08T01:02:21.319Z,5.43
2019-02-08T01:04:51.924Z,5.83
2019-02-08T01:07:22.351Z,4.83
2019-02-08T01:09:52.770Z,5.00
2019-02-08T01:12:23.299Z,6.67
2019-02-08T01:14:53.690Z,4.37
2019-02-08T01:17:24.034Z,6.77
2019-02-08T01:19:54.518Z,7.07
2019-02-08T01:22:25.051Z,7.28
2019-02-08T01:24:55.550Z,6.17
2019-02-08T01:27:25.942Z,6.62
2019-02-08T01:29:56.123Z,7.67
2019-02-08T01:32:26.447Z,6.20
2019-02-08T01:34:56.758Z,6.30
2019-02-08T01:37:27.007Z,6.58
2019-02-08T01:39:57.303Z,6.27
2019-02-08T01:42:27.529Z,7.00
2019-02-08T01:44:57.710Z,5.30
2019-02-08T01:47:27.969Z,7.17
2019-02-08T01:49:58.161Z,7.63
2019-02-08T01:52:28.420Z,8.00
2019-02-08T01:54:58.676Z,7.40
2019-02-08T01:57:28.950Z,7.58
2019-02-08T01:59:59.117Z,7.77
2019-02-08T02:02:29.367Z,7.63
2019-02-08T02:04:59.683Z,7.57
2019-02-08T02:07:30.038Z,7.63
2019-02-08T02:10:00.408Z,8.13
2019-02-08T02:12:30.611Z,8.37
2019-02-08T02:15:01.129Z,7.13
2019-02-08T02:17:31.489Z,8.50
2019-02-08T02:20:06.381Z,7.95
2019-02-08T02:22:36.767Z,9.83
2019-02-08T02:25:08.656Z,8.30
2019-02-08T02:27:38.992Z,9.28
2019-02-08T02:30:12.599Z,9.57
2019-02-08T02:32:43.034Z,11.03
2019-02-08T02:35:13.974Z,9.75
2019-02-08T02:37:44.251Z,9.77
2019-02-08T02:40:15.014Z,9.03
2019-02-08T02:42:45.299Z,11.20
2019-02-08T02:45:27.748Z,11.00
2019-02-08T02:47:58.411Z,11.27
2019-02-08T02:50:28.851Z,13.27
2019-02-08T02:52:59.205Z,13.03
2019-02-08T02:55:30.326Z,11.43
2019-02-08T02:58:00.587Z,12.28
2019-02-08T03:00:35.717Z,12.87
2019-02-08T03:03:07.580Z,12.18
2019-02-08T03:05:38.039Z,13.07
2019-02-08T03:08:10.017Z,12.03
2019-02-08T03:10:40.644Z,12.33
2019-02-08T03:13:11.462Z,11.97
2019-02-08T03:15:42.068Z,12.43
2019-02-08T03:18:12.576Z,11.80
2019-02-08T03:20:43.058Z,12.50
2019-02-08T03:23:13.539Z,12.73
2019-02-08T03:25:44.304Z,11.87
2019-02-08T03:28:14.801Z,12.30
2019-02-08T03:30:56.559Z,12.50
2019-02-08T03:33:27.232Z,11.23
2019-02-08T03:35:57.801Z,10.97
2019-02-08T03:38:28.288Z,11.13
2019-02-08T03:40:58.715Z,9.63
2019-02-08T03:43:29.286Z,10.67
2019-02-08T03:45:59.771Z,10.00
2019-02-08T03:48:30.193Z,10.50
2019-02-08T03:51:00.644Z,10.73
2019-02-08T03:53:30.982Z,10.33
2019-02-08T03:56:01.130Z,9.70
2019-02-08T03:58:31.353Z,9.40
2019-02-08T04:01:06.328Z,10.10
2019-02-08T04:03:36.789Z,10.60
2019-02-08T04:06:07.499Z,9.30
2019-02-08T04:08:37.876Z,10.00
2019-02-08T04:11:08.197Z,10.73
2019-02-08T04:13:38.468Z,11.37
2019-02-08T04:16:09.028Z,9.80
2019-02-08T04:18:39.447Z,10.23
2019-02-08T04:21:09.737Z,11.10
2019-02-08T04:23:40.032Z,10.07
2019-02-08T04:26:12.585Z,11.17
2019-02-08T04:28:48.550Z,11.33
2019-02-08T04:31:18.842Z,11.68
2019-02-08T04:36:34.150Z,11.67
2019-02-08T04:39:06.703Z,13.30
2019-02-08T04:41:37.350Z,12.65
2019-02-08T04:44:08.943Z,11.03
2019-02-08T04:46:40.790Z,12.03
2019-02-08T04:49:12.911Z,13.33
2019-02-08T04:51:43.420Z,13.80
2019-02-08T04:54:15.650Z,12.83
2019-02-08T04:56:45.958Z,12.40
2019-02-08T04:59:18.118Z,14.23
2019-02-08T05:01:50.214Z,14.30
2019-02-08T05:04:20.677Z,14.27
2019-02-08T05:06:55.442Z,14.98
2019-02-08T05:09:25.919Z,13.37
2019-02-08T05:11:56.335Z,15.33
2019-02-08T05:14:26.739Z,14.40
2019-02-08T05:16:57.135Z,15.23
2019-02-08T05:19:27.497Z,14.27
2019-02-08T05:21:57.901Z,14.65
2019-02-08T05:24:28.341Z,14.83
2019-02-08T05:26:58.707Z,14.33
2019-02-08T05:29:30.434Z,13.00
2019-02-08T05:32:00.843Z,13.13
2019-02-08T05:34:31.193Z,14.53
2019-02-08T05:37:02.199Z,13.40
2019-02-08T05:39:35.184Z,14.47
2019-02-08T05:42:08.793Z,13.50
2019-02-08T05:44:42.029Z,13.53
2019-02-08T05:47:12.473Z,14.07
2019-02-08T05:49:45.091Z,13.70
2019-02-08T05:52:16.865Z,14.43
2019-02-08T05:54:54.263Z,15.00
2019-02-08T05:57:19.389Z,15.10
2019-02-08T05:59:51.234Z,14.70
2019-02-08T06:02:21.742Z,13.90
2019-02-08T06:04:52.779Z,14.23
2019-02-08T06:07:23.144Z,14.37
2019-02-08T06:10:00.239Z,13.27
2019-02-08T06:12:29.818Z,13.83
2019-02-08T06:15:02.690Z,14.70
2019-02-08T06:17:35.488Z,14.43
2019-02-08T06:20:09.609Z,14.58
2019-02-08T06:22:41.281Z,13.55
2019-02-08T06:25:11.901Z,14.68
2019-02-08T06:27:44.440Z,14.90
2019-02-08T06:30:18.932Z,13.40
2019-02-08T06:32:49.421Z,12.40
2019-02-08T06:35:25.061Z,14.05
2019-02-08T06:37:55.437Z,15.30
2019-02-08T06:40:26.658Z,13.53
2019-02-08T06:42:57.390Z,13.40
2019-02-08T06:45:28.133Z,12.83
2019-02-08T06:47:58.501Z,13.40
2019-02-08T06:50:28.888Z,14.37
2019-02-08T06:53:02.047Z,13.23
2019-02-08T06:55:38.609Z,13.73
2019-02-08T06:58:34.984Z,14.50
2019-02-08T07:01:15.864Z,12.73
2019-02-08T07:04:23.058Z,13.50
2019-02-08T07:07:11.060Z,12.70
2019-02-08T07:10:01.118Z,13.43
2019-02-08T07:12:53.279Z,12.53
2019-02-08T07:15:41.778Z,13.63
2019-02-08T07:18:27.713Z,14.00
2019-02-08T07:21:19.696Z,13.73
2019-02-08T07:24:06.499Z,14.03
2019-02-08T07:27:10.846Z,15.10
2019-02-08T07:30:11.787Z,14.47
2019-02-08T07:33:19.045Z,14.03
2019-02-08T07:36:06.832Z,14.50
2019-02-08T07:38:43.483Z,14.50
2019-02-08T07:41:35.211Z,12.45
2019-02-08T07:44:26.769Z,12.23
2019-02-08T07:47:23.097Z,14.10
2019-02-08T07:50:18.455Z,14.83
2019-02-08T07:52:59.653Z,14.63
2019-02-08T07:55:48.820Z,15.03
2019-02-08T07:58:31.550Z,14.63
2019-02-08T08:01:15.219Z,15.47
2019-02-08T08:04:16.606Z,15.17
2019-02-08T08:07:06.208Z,14.97
2019-02-08T08:09:55.895Z,15.00
2019-02-08T08:12:40.104Z,14.60
2019-02-08T08:18:27.241Z,15.33
2019-02-08T08:21:23.075Z,15.77
2019-02-08T08:24:12.589Z,17.53
2019-02-08T08:26:59.583Z,16.13
2019-02-08T08:29:47.646Z,15.00
2019-02-08T08:32:29.728Z,16.30
2019-02-08T08:35:42.008Z,14.43
2019-02-08T08:39:15.132Z,15.07
2019-02-08T08:42:49.156Z,14.37
2019-02-08T08:50:16.345Z,14.28
2019-02-08T08:53:57.445Z,14.63
2019-02-08T08:57:29.285Z,15.37
2019-02-08T09:01:01.244Z,16.07
2019-02-08T09:04:49.466Z,15.67
2019-02-08T09:08:33.015Z,15.30
2019-02-08T09:12:37.227Z,14.57
2019-02-08T09:15:51.842Z,14.77
2019-02-08T09:19:12.469Z,13.32
2019-02-08T09:22:30.444Z,14.03
2019-02-08T09:26:17.855Z,14.73
2019-02-08T09:30:08.395Z,14.13
2019-02-08T09:33:38.153Z,14.27
2019-02-08T09:37:11.271Z,13.33
2019-02-08T09:40:51.395Z,12.57
2019-02-08T09:44:28.409Z,14.27
2019-02-08T09:47:40.492Z,13.88
2019-02-08T09:51:12.737Z,14.47
2019-02-08T09:54:21.461Z,12.07
2019-02-08T09:57:37.047Z,13.23
2019-02-08T10:00:56.013Z,13.23
2019-02-08T10:04:02.447Z,12.40
2019-02-08T10:07:29.915Z,12.40
2019-02-08T10:11:21.450Z,12.43
2019-02-08T10:15:06.219Z,13.05
2019-02-08T10:18:49.047Z,12.23
2019-02-08T10:22:10.091Z,13.73
2019-02-08T10:25:19.317Z,13.07
2019-02-08T10:29:16.659Z,13.53
2019-02-08T10:32:45.980Z,13.37
2019-02-08T10:36:04.440Z,13.83
2019-02-08T10:39:27.154Z,13.88
2019-02-08T10:43:05.760Z,13.03
2019-02-08T10:46:25.512Z,13.53
2019-02-08T10:49:46.394Z,12.67
2019-02-08T10:53:07.981Z,11.90
2019-02-08T10:56:38.075Z,13.97
2019-02-08T11:00:34.207Z,13.23
2019-02-08T11:04:14.902Z,13.00
2019-02-08T11:07:33.834Z,12.60
2019-02-08T11:10:58.235Z,13.40
2019-02-08T11:14:19.707Z,12.33
2019-02-08T11:17:57.047Z,12.63
2019-02-08T11:20:27.378Z,12.10
2019-02-08T11:23:04.458Z,12.10
2019-02-08T11:25:33.028Z,13.17
2019-02-08T11:28:03.502Z,13.60
2019-02-08T11:30:37.976Z,12.17
2019-02-08T11:33:08.424Z,10.37
2019-02-08T11:35:39.142Z,11.93
2019-02-08T11:38:09.580Z,10.90
2019-02-08T11:40:40.010Z,10.87
2019-02-08T11:43:10.545Z,10.20
2019-02-08T11:45:41.051Z,10.50
2019-02-08T11:48:12.805Z,10.85
2019-02-08T11:50:43.205Z,10.20
2019-02-08T11:53:15.711Z,10.45
2019-02-08T11:55:46.308Z,9.17
2019-02-08T11:58:16.806Z,9.43
2019-02-08T12:00:51.747Z,10.30
2019-02-08T12:03:25.089Z,9.70
2019-02-08T12:05:57.819Z,9.23
2019-02-08T12:08:30.625Z,9.60
2019-02-08T12:11:00.951Z,9.03
2019-02-08T12:13:31.335Z,8.80
2019-02-08T12:16:01.838Z,8.73
2019-02-08T12:18:34.589Z,8.43
2019-02-08T12:21:04.948Z,8.37
2019-02-08T12:23:38.776Z,8.73
2019-02-08T12:26:09.264Z,7.20
2019-02-08T12:29:00.155Z,6.90
2019-02-08T12:32:51.538Z,7.97
2019-02-08T12:35:23.105Z,7.03
2019-02-08T12:37:53.509Z,6.93
2019-02-08T12:40:24.616Z,7.17
2019-02-08T12:42:54.901Z,7.60
2019-02-08T12:45:25.335Z,6.40
2019-02-08T12:47:55.578Z,6.47
2019-02-08T12:50:25.921Z,6.30
2019-02-08T12:52:56.203Z,6.57
2019-02-08T12:55:26.503Z,6.80
2019-02-08T12:57:56.714Z,6.57
2019-02-08T13:00:27.401Z,6.40
2019-02-08T13:02:57.632Z,6.50
2019-02-08T13:05:28.100Z,6.47
2019-02-08T13:07:58.350Z,6.10
2019-02-08T13:10:28.826Z,6.83
2019-02-08T13:13:03.757Z,6.50
2019-02-08T13:21:56.752Z,6.77
2019-02-08T13:24:28.774Z,5.53
2019-02-08T13:26:59.385Z,5.70
2019-02-08T13:29:30.816Z,6.60
2019-02-08T13:32:06.282Z,6.80
2019-02-08T13:34:39.413Z,6.53
2019-02-08T13:41:06.322Z,6.67
2019-02-08T13:43:46.593Z,6.67
2019-02-08T13:46:23.616Z,7.17
2019-02-08T13:48:58.556Z,6.47
2019-02-08T13:51:30.973Z,7.70
2019-02-08T13:54:02.893Z,6.93
2019-02-08T13:56:36.587Z,6.67
2019-02-08T13:59:09.117Z,6.93
2019-02-08T14:01:39.765Z,7.10
2019-02-08T14:04:11.774Z,7.67
2019-02-08T14:06:42.196Z,7.17
2019-02-08T14:09:12.972Z,6.60
2019-02-08T14:11:43.463Z,6.57
2019-02-08T14:14:13.924Z,7.60
2019-02-08T14:16:44.350Z,7.17
2019-02-08T14:19:15.515Z,6.97
2019-02-08T14:21:48.600Z,7.30
2019-02-08T14:24:32.951Z,7.60
2019-02-08T14:26:56.274Z,6.87
2019-02-08T14:29:26.507Z,7.60
2019-02-08T14:31:56.750Z,7.00
2019-02-08T14:34:27.020Z,6.97
2019-02-08T14:36:57.311Z,7.07
2019-02-08T14:39:27.690Z,7.30
2019-02-08T14:42:00.020Z,7.23
2019-02-08T14:44:30.795Z,7.00
2019-02-08T14:47:01.086Z,6.67
2019-02-08T14:49:31.306Z,6.90
2019-02-08T14:52:04.417Z,6.60
2019-02-08T14:54:34.941Z,6.40
2019-02-08T14:57:08.088Z,6.07
2019-02-08T14:59:38.395Z,5.77
2019-02-08T15:02:08.667Z,5.50
2019-02-08T15:04:39.024Z,6.03
2019-02-08T15:07:10.542Z,5.90
2019-02-08T15:09:40.822Z,5.90
2019-02-08T15:12:11.116Z,5.80
2019-02-08T15:14:41.452Z,5.47
2019-02-08T15:17:11.604Z,5.03
2019-02-08T15:19:41.936Z,5.70
2019-02-08T15:22:12.195Z,5.28
2019-02-08T15:24:42.525Z,5.20
2019-02-08T15:27:12.732Z,5.37
2019-02-08T15:29:43.014Z,4.70
2019-02-08T15:32:13.387Z,5.00
2019-02-08T15:34:44.411Z,5.53
2019-02-08T15:37:14.711Z,4.72
2019-02-08T15:39:44.958Z,4.83
2019-02-08T15:42:15.244Z,4.57
2019-02-08T15:44:45.459Z,4.90
2019-02-08T15:47:15.747Z,4.73
2019-02-08T15:49:46.036Z,4.40
2019-02-08T15:52:16.358Z,4.50
2019-02-08T15:54:46.781Z,4.30
2019-02-08T15:57:17.086Z,3.92
2019-02-08T15:59:47.243Z,4.97
2019-02-08T16:02:17.538Z,4.80
2019-02-08T16:04:47.755Z,4.53
2019-02-08T16:07:18.088Z,4.20
2019-02-08T16:09:48.337Z,4.83
2019-02-08T16:12:27.059Z,4.80
2019-02-08T16:14:57.533Z,4.08
2019-02-08T16:17:27.978Z,4.70
2019-02-08T16:19:58.516Z,4.57
2019-02-08T16:22:29.036Z,4.30
2019-02-08T16:25:01.339Z,4.23
2019-02-08T16:27:38.759Z,4.60
2019-02-08T16:30:04.711Z,4.15
2019-02-08T16:32:35.285Z,4.03
2019-02-08T16:35:07.218Z,4.47
2019-02-08T16:37:37.679Z,4.07
2019-02-08T16:40:14.138Z,3.87
2019-02-08T16:42:45.648Z,4.23
2019-02-08T16:45:23.571Z,3.87
2019-02-08T16:47:55.784Z,4.00
2019-02-08T16:50:27.938Z,3.65
2019-02-08T16:52:58.527Z,4.13
2019-02-08T16:55:30.487Z,4.27
2019-02-08T16:58:01.406Z,3.83
2019-02-08T17:00:34.574Z,4.37
2019-02-08T17:03:09.365Z,4.73
2019-02-08T17:05:41.315Z,4.83
2019-02-08T17:08:13.899Z,4.47
2019-02-08T17:10:44.234Z,4.67
2019-02-08T17:13:14.461Z,4.53
2019-02-08T17:15:44.911Z,4.10
2019-02-08T17:18:15.115Z,4.50
2019-02-08T17:20:47.275Z,5.13
2019-02-08T17:23:17.627Z,4.43
2019-02-08T17:25:50.542Z,4.73
2019-02-08T17:28:21.424Z,4.83
2019-02-08T17:30:51.803Z,4.90
2019-02-08T17:33:22.145Z,4.60
2019-02-08T17:35:52.639Z,4.20
2019-02-08T17:38:22.833Z,5.05
2019-02-08T17:40:53.248Z,4.30
2019-02-08T17:43:23.615Z,4.30
2019-02-08T17:45:54.342Z,4.85
2019-02-08T17:48:24.719Z,4.87
2019-02-08T17:50:55.010Z,4.60
2019-02-08T17:53:25.625Z,4.80
2019-02-08T17:55:55.959Z,4.42
2019-02-08T17:58:26.307Z,3.57
2019-02-08T18:00:58.359Z,4.30
2019-02-08T18:03:30.248Z,4.57
2019-02-08T18:06:00.631Z,4.00
2019-02-08T18:08:30.849Z,4.50
2019-02-08T18:11:01.019Z,4.07
2019-02-08T18:13:31.198Z,4.20
2019-02-08T18:16:01.473Z,3.83
2019-02-08T18:18:33.356Z,4.13
2019-02-08T18:21:08.199Z,3.97
2019-02-08T18:23:38.675Z,3.80
2019-02-08T18:26:09.307Z,4.07
2019-02-08T18:28:39.790Z,3.60
2019-02-08T18:31:10.340Z,4.23
2019-02-08T18:33:40.976Z,4.10
2019-02-08T18:36:11.490Z,5.00
2019-02-08T18:38:41.878Z,4.30
2019-02-08T18:41:12.314Z,4.20
2019-02-08T18:43:42.867Z,3.80
2019-02-08T18:46:13.405Z,4.90
2019-02-08T18:48:43.777Z,3.57
2019-02-08T18:51:13.935Z,3.55
2019-02-08T18:53:44.088Z,3.70
2019-02-08T18:56:14.437Z,3.92
2019-02-08T18:58:44.720Z,3.50
2019-02-08T19:01:14.944Z,4.10
2019-02-08T19:03:45.165Z,3.90
2019-02-08T19:06:15.404Z,3.70
2019-02-08T19:08:45.611Z,4.00
2019-02-08T19:11:15.866Z,3.90
2019-02-08T19:13:46.087Z,3.43
2019-02-08T19:16:16.930Z,3.55
2019-02-08T19:18:47.428Z,3.67
2019-02-08T19:21:18.049Z,3.70
2019-02-08T19:23:48.482Z,3.53
2019-02-08T19:26:19.010Z,3.37
2019-02-08T19:28:49.469Z,4.10
2019-02-08T19:31:20.170Z,3.37
2019-02-08T19:33:50.814Z,3.80
2019-02-08T19:36:21.267Z,3.77
2019-02-08T19:38:51.783Z,4.00
2019-02-08T19:41:22.286Z,3.70
2019-02-08T19:43:52.839Z,3.73
2019-02-08T19:46:26.861Z,3.58
2019-02-08T19:48:57.458Z,4.00
2019-02-08T19:51:27.995Z,3.83
2019-02-08T19:53:58.439Z,4.13
2019-02-08T19:56:28.956Z,3.60
2019-02-08T19:59:01.854Z,4.23
2019-02-08T20:01:32.290Z,4.10
2019-02-08T20:04:02.652Z,4.07
2019-02-08T20:06:33.116Z,4.10
2019-02-08T20:09:04.628Z,4.20
2019-02-08T20:11:35.138Z,4.33
2019-02-08T20:14:09.991Z,5.20
2019-02-08T20:16:40.370Z,4.37
2019-02-08T20:19:10.874Z,4.50
2019-02-08T20:21:41.331Z,4.67
2019-02-08T20:24:11.864Z,4.67
2019-02-08T20:26:42.335Z,4.50
2019-02-08T20:29:12.781Z,4.80
2019-02-08T20:31:43.285Z,4.60
2019-02-08T20:34:13.864Z,4.67
2019-02-08T20:36:44.505Z,4.97
2019-02-08T20:39:15.242Z,4.40
2019-02-08T20:41:45.856Z,4.90
2019-02-08T20:44:16.293Z,4.97
2019-02-08T20:46:46.783Z,4.63
2019-02-08T20:49:17.310Z,4.90
2019-02-08T20:51:47.602Z,5.00
2019-02-08T20:54:17.898Z,4.67
2019-02-08T20:56:48.200Z,5.00
2019-02-08T20:59:18.496Z,4.30
2019-02-08T21:01:48.714Z,5.10
2019-02-08T21:04:18.963Z,4.57
2019-02-08T21:06:49.212Z,5.27
2019-02-08T21:09:19.411Z,4.72
2019-02-08T21:11:50.117Z,4.33
2019-02-08T21:14:20.273Z,4.80
2019-02-08T21:16:53.136Z,5.00
2019-02-08T21:19:23.580Z,5.17
2019-02-08T21:21:54.093Z,5.03
2019-02-08T21:24:24.499Z,4.70
2019-02-08T21:26:54.973Z,4.80
2019-02-08T21:29:25.483Z,4.90
2019-02-08T21:31:56.112Z,4.93
2019-02-08T21:34:29.441Z,4.90
2019-02-08T21:36:59.918Z,5.07
2019-02-08T21:39:30.595Z,5.50
2019-02-08T21:42:01.077Z,6.10
2019-02-08T21:44:31.798Z,5.53
2019-02-08T21:47:02.500Z,5.00
2019-02-08T21:49:33.007Z,5.70
2019-02-08T21:52:03.582Z,5.53
2019-02-08T21:54:34.042Z,4.80
2019-02-08T21:57:04.655Z,4.73
2019-02-08T21:59:35.175Z,5.07
2019-02-08T22:02:06.883Z,4.50
2019-02-08T22:04:37.366Z,5.17
2019-02-08T22:07:07.950Z,5.07
2019-02-08T22:09:38.173Z,5.40
2019-02-08T22:12:08.457Z,5.60
2019-02-08T22:14:38.768Z,4.60
2019-02-08T22:17:09.083Z,4.83
2019-02-08T22:19:39.226Z,4.93
2019-02-08T22:22:10.043Z,5.37
2019-02-08T22:24:40.406Z,4.57
2019-02-08T22:27:10.569Z,5.60
2019-02-08T22:29:40.747Z,5.40
2019-02-08T22:32:10.956Z,4.85
2019-02-08T22:34:41.122Z,4.87
2019-02-08T22:37:11.376Z,5.30
2019-02-08T22:39:41.612Z,5.57
2019-02-08T22:42:11.868Z,4.58
2019-02-08T22:44:41.996Z,5.20
2019-02-08T22:47:12.209Z,6.05
2019-02-08T22:49:42.389Z,5.90
2019-02-08T22:52:12.593Z,5.40
2019-02-08T22:54:42.765Z,5.37
2019-02-08T22:57:12.923Z,5.53
2019-02-08T22:59:43.136Z,5.50
2019-02-08T23:02:13.922Z,5.80
2019-02-08T23:04:44.840Z,6.30
2019-02-08T23:07:15.112Z,5.03
2019-02-08T23:09:45.326Z,5.70
2019-02-08T23:12:15.648Z,5.53
2019-02-08T23:14:45.770Z,5.07
2019-02-08T23:17:16.086Z,5.25
2019-02-08T23:19:46.347Z,5.40
2019-02-08T23:22:16.658Z,5.05
2019-02-08T23:24:46.871Z,5.83
2019-02-08T23:27:17.214Z,5.47
2019-02-08T23:29:47.349Z,4.90
2019-02-08T23:32:17.546Z,4.77
2019-02-08T23:34:47.871Z,5.50
2019-02-08T23:37:25.728Z,5.83
2019-02-08T23:39:50.045Z,5.10
2019-02-08T23:42:20.295Z,5.53
2019-02-08T23:44:50.531Z,5.37
2019-02-08T23:47:20.774Z,5.20
2019-02-08T23:49:50.995Z,4.90
2019-02-08T23:52:21.275Z,4.72
2019-02-08T23:54:51.423Z,5.60
2019-02-08T23:57:21.645Z,5.75
2019-02-08T23:59:51.913Z,5.10
